createdAt,value
2018-08-28T00:00:15.271Z,17.5
2018-08-28T00:03:15.609Z,17.4
2018-08-28T00:06:15.920Z,17.5
2018-08-28T00:09:15.362Z,17.4
2018-08-28T00:12:15.813Z,17.1
2018-08-28T00:15:15.532Z,17.2
2018-08-28T00:18:14.975Z,17.2
2018-08-28T00:21:15.392Z,17.1
2018-08-28T00:24:15.764Z,16.7
2018-08-28T00:27:15.190Z,16.7
2018-08-28T00:30:15.469Z,16.6
2018-08-28T00:33:15.780Z,16.7
2018-08-28T00:36:15.063Z,16.6
2018-08-28T00:39:15.311Z,16.4
2018-08-28T00:42:15.566Z,16.2
2018-08-28T00:45:15.779Z,16.1
2018-08-28T00:48:15.511Z,16.1
2018-08-28T00:51:15.226Z,16.2
2018-08-28T00:54:15.711Z,16.0
2018-08-28T00:57:15.404Z,16.1
2018-08-28T01:00:15.780Z,15.9
2018-08-28T01:03:15.066Z,15.7
2018-08-28T01:06:15.312Z,15.8
2018-08-28T01:09:15.785Z,15.7
2018-08-28T01:12:22.278Z,15.5
2018-08-28T01:15:15.488Z,15.4
2018-08-28T01:18:15.646Z,15.5
2018-08-28T01:21:15.769Z,15.4
2018-08-28T01:24:15.256Z,15.3
2018-08-28T01:27:15.489Z,15.3
2018-08-28T01:30:15.920Z,15.2
2018-08-28T01:33:15.235Z,15.1
2018-08-28T01:36:15.573Z,15.0
2018-08-28T01:39:15.775Z,15.0
2018-08-28T01:42:15.210Z,14.9
2018-08-28T01:45:15.249Z,14.9
2018-08-28T01:48:15.675Z,15.0
2018-08-28T01:51:15.907Z,15.1
2018-08-28T01:54:15.269Z,15.0
2018-08-28T01:57:15.661Z,14.9
2018-08-28T02:00:15.056Z,14.8
2018-08-28T02:03:15.395Z,14.8
2018-08-28T02:06:15.611Z,15.0
2018-08-28T02:09:15.887Z,14.8
2018-08-28T02:12:15.179Z,14.8
2018-08-28T02:15:15.551Z,15.0
2018-08-28T02:18:15.862Z,15.0
2018-08-28T02:21:15.238Z,15.1
2018-08-28T02:24:15.655Z,15.2
2018-08-28T02:27:15.029Z,15.4
2018-08-28T02:30:15.423Z,15.3
2018-08-28T02:33:15.662Z,15.3
2018-08-28T02:36:15.312Z,15.3
2018-08-28T02:39:15.846Z,15.4
2018-08-28T02:42:15.175Z,15.7
2018-08-28T02:45:15.546Z,15.8
2018-08-28T02:48:15.843Z,15.7
2018-08-28T02:51:15.284Z,15.6
2018-08-28T02:54:15.638Z,15.5
2018-08-28T02:57:15.877Z,15.5
2018-08-28T03:00:15.475Z,15.3
2018-08-28T03:03:16.027Z,15.5
2018-08-28T03:06:15.441Z,15.6
2018-08-28T03:09:15.089Z,15.7
2018-08-28T03:12:15.376Z,15.7
2018-08-28T03:15:15.785Z,15.5
2018-08-28T03:18:15.240Z,15.4
2018-08-28T03:21:15.623Z,15.7
2018-08-28T03:24:15.118Z,15.6
2018-08-28T03:27:15.572Z,15.8
2018-08-28T03:30:15.008Z,15.8
2018-08-28T03:33:15.312Z,15.7
2018-08-28T03:36:15.589Z,15.7
2018-08-28T03:39:15.908Z,15.8
2018-08-28T03:42:15.326Z,15.7
2018-08-28T03:45:15.779Z,15.7
2018-08-28T03:48:15.202Z,15.8
2018-08-28T03:51:15.864Z,15.9
2018-08-28T03:54:15.293Z,16.0
2018-08-28T03:57:14.978Z,16.0
2018-08-28T04:00:15.407Z,15.9
2018-08-28T04:03:15.697Z,15.8
2018-08-28T04:06:15.065Z,15.7
2018-08-28T04:09:20.583Z,15.6
2018-08-28T04:12:14.968Z,15.7
2018-08-28T04:15:15.284Z,15.6
2018-08-28T04:18:15.796Z,15.5
2018-08-28T04:21:15.491Z,15.6
2018-08-28T04:24:15.723Z,15.3
2018-08-28T04:27:15.565Z,15.0
2018-08-28T04:30:15.815Z,15.0
2018-08-28T04:33:15.234Z,15.0
2018-08-28T04:36:15.488Z,14.9
2018-08-28T04:39:15.919Z,14.8
2018-08-28T04:42:15.401Z,14.7
2018-08-28T04:45:15.793Z,14.8
2018-08-28T04:48:15.243Z,14.9
2018-08-28T04:51:15.764Z,14.9
2018-08-28T04:54:15.903Z,15.0
2018-08-28T04:57:15.356Z,15.0
2018-08-28T05:00:19.816Z,14.9
2018-08-28T05:03:15.228Z,15.2
2018-08-28T05:06:15.737Z,15.2
2018-08-28T05:09:15.102Z,15.1
2018-08-28T05:12:15.514Z,15.3
2018-08-28T05:15:15.855Z,15.5
2018-08-28T05:18:15.308Z,15.3
2018-08-28T05:21:15.687Z,15.3
2018-08-28T05:24:15.105Z,15.6
2018-08-28T05:27:15.625Z,15.6
2018-08-28T05:30:14.983Z,15.5
2018-08-28T05:33:15.863Z,15.6
2018-08-28T05:36:15.352Z,15.8
2018-08-28T05:39:15.786Z,15.6
2018-08-28T05:42:15.045Z,15.9
2018-08-28T05:45:15.350Z,16.1
2018-08-28T05:48:15.555Z,16.3
2018-08-28T05:51:15.795Z,16.5
2018-08-28T05:54:15.083Z,16.5
2018-08-28T05:57:15.271Z,16.3
2018-08-28T06:00:15.509Z,16.5
2018-08-28T06:03:15.808Z,16.5
2018-08-28T06:06:15.488Z,16.5
2018-08-28T06:09:15.675Z,16.6
2018-08-28T06:12:14.956Z,16.6
2018-08-28T06:15:15.124Z,17.0
2018-08-28T06:18:15.375Z,17.2
2018-08-28T06:21:15.913Z,17.5
2018-08-28T06:24:15.247Z,17.7
2018-08-28T06:27:15.437Z,17.7
2018-08-28T06:30:14.929Z,18.2
2018-08-28T06:33:15.216Z,18.5
2018-08-28T06:36:15.416Z,19.0
2018-08-28T06:39:15.635Z,19.0
2018-08-28T06:42:15.853Z,18.9
2018-08-28T06:45:15.108Z,19.0
2018-08-28T06:48:15.422Z,19.5
2018-08-28T06:51:15.836Z,19.7
2018-08-28T06:54:15.302Z,19.3
2018-08-28T06:57:15.814Z,18.8
2018-08-28T07:00:15.415Z,19.3
2018-08-28T07:03:15.753Z,19.5
2018-08-28T07:06:14.969Z,19.8
2018-08-28T07:09:15.325Z,19.7
2018-08-28T07:12:15.796Z,19.5
2018-08-28T07:15:15.430Z,19.5
2018-08-28T07:18:15.879Z,19.6
2018-08-28T07:21:15.421Z,19.9
2018-08-28T07:24:15.816Z,20.5
2018-08-28T07:27:15.190Z,20.9
2018-08-28T07:30:15.223Z,20.8
2018-08-28T07:33:15.930Z,20.7
2018-08-28T07:36:15.357Z,21.4
2018-08-28T07:39:15.828Z,21.5
2018-08-28T07:42:15.161Z,21.6
2018-08-28T07:45:15.903Z,21.9
2018-08-28T07:48:15.409Z,22.7
2018-08-28T07:51:15.830Z,23.4
2018-08-28T07:54:15.067Z,23.4
2018-08-28T07:57:15.361Z,24.1
2018-08-28T08:00:15.631Z,24.3
2018-08-28T08:03:15.877Z,24.3
2018-08-28T08:06:15.165Z,24.1
2018-08-28T08:09:15.470Z,24.3
2018-08-28T08:12:15.765Z,24.3
2018-08-28T08:15:15.043Z,24.5
2018-08-28T08:18:15.421Z,24.9
2018-08-28T08:21:15.820Z,24.5
2018-08-28T08:24:15.000Z,25.5
2018-08-28T08:27:15.128Z,26.1
2018-08-28T08:30:14.962Z,26.4
2018-08-28T08:33:15.343Z,25.5
2018-08-28T08:36:15.616Z,25.6
2018-08-28T08:39:15.864Z,25.7
2018-08-28T08:42:15.113Z,25.6
2018-08-28T08:45:15.503Z,25.4
2018-08-28T08:48:15.780Z,25.7
2018-08-28T08:51:15.072Z,26.2
2018-08-28T08:54:15.266Z,25.5
2018-08-28T08:57:15.658Z,25.2
2018-08-28T09:00:15.272Z,25.7
2018-08-28T09:03:16.114Z,25.5
2018-08-28T09:06:16.164Z,26.7
2018-08-28T09:09:16.241Z,26.9
2018-08-28T09:12:15.366Z,27.2
2018-08-28T09:15:16.302Z,26.6
2018-08-28T09:18:15.699Z,25.9
2018-08-28T09:21:15.827Z,27.1
2018-08-28T09:24:15.891Z,26.4
2018-08-28T09:27:16.109Z,26.8
2018-08-28T09:30:15.573Z,27.8
2018-08-28T09:33:15.732Z,27.8
2018-08-28T09:36:15.757Z,27.2
2018-08-28T09:39:16.062Z,26.7
2018-08-28T09:42:16.213Z,25.8
2018-08-28T09:45:15.430Z,26.4
2018-08-28T09:48:15.696Z,27.1
2018-08-28T09:51:16.359Z,28.6
2018-08-28T09:54:15.554Z,29.3
2018-08-28T09:57:15.876Z,30.6
2018-08-28T10:00:16.078Z,30.8
2018-08-28T10:03:15.786Z,31.1
2018-08-28T10:06:16.042Z,30.3
2018-08-28T10:09:16.202Z,31.2
2018-08-28T10:12:15.348Z,31.0
2018-08-28T10:15:15.441Z,30.9
2018-08-28T10:18:15.629Z,30.2
2018-08-28T10:21:15.856Z,31.2
2018-08-28T10:24:16.138Z,31.8
2018-08-28T10:27:16.319Z,32.8
2018-08-28T10:30:15.590Z,32.2
2018-08-28T10:33:15.980Z,31.9
2018-08-28T10:36:16.206Z,32.7
2018-08-28T10:39:15.573Z,32.5
2018-08-28T10:42:15.702Z,32.7
2018-08-28T10:45:16.118Z,32.5
2018-08-28T10:48:15.420Z,32.3
2018-08-28T10:51:15.902Z,33.0
2018-08-28T10:54:15.387Z,32.5
2018-08-28T10:57:15.684Z,32.2
2018-08-28T11:00:16.013Z,32.9
2018-08-28T11:03:16.392Z,32.8
2018-08-28T11:06:16.130Z,32.9
2018-08-28T11:09:15.489Z,33.6
2018-08-28T11:12:15.850Z,33.2
2018-08-28T11:15:16.170Z,33.0
2018-08-28T11:18:15.593Z,32.9
2018-08-28T11:21:16.002Z,32.8
2018-08-28T11:24:16.353Z,33.9
2018-08-28T11:27:15.509Z,33.5
2018-08-28T11:30:15.625Z,32.2
2018-08-28T11:33:16.094Z,31.7
2018-08-28T11:36:15.406Z,31.2
2018-08-28T11:39:15.671Z,30.9
2018-08-28T11:42:15.901Z,30.2
2018-08-28T11:45:16.130Z,30.5
2018-08-28T11:48:15.365Z,30.3
2018-08-28T11:51:15.714Z,30.4
2018-08-28T11:54:15.924Z,30.8
2018-08-28T11:57:16.100Z,30.4
2018-08-28T12:00:15.447Z,30.2
2018-08-28T12:03:15.615Z,30.6
2018-08-28T12:06:15.821Z,29.9
2018-08-28T12:09:16.044Z,30.1
2018-08-28T12:12:16.487Z,29.3
2018-08-28T12:15:15.634Z,29.0
2018-08-28T12:18:15.753Z,28.7
2018-08-28T12:21:16.051Z,29.3
2018-08-28T12:24:15.300Z,29.2
2018-08-28T12:27:15.432Z,29.6
2018-08-28T12:30:15.672Z,29.4
2018-08-28T12:33:15.840Z,29.4
2018-08-28T12:36:15.924Z,29.0
2018-08-28T12:39:16.027Z,29.1
2018-08-28T12:42:15.538Z,29.1
2018-08-28T12:45:15.786Z,28.9
2018-08-28T12:48:16.010Z,28.6
2018-08-28T12:51:16.256Z,28.3
2018-08-28T12:54:15.731Z,28.3
2018-08-28T12:57:16.042Z,28.3
2018-08-28T13:00:16.306Z,28.4
2018-08-28T13:03:15.580Z,28.1
2018-08-28T13:06:16.168Z,28.0
2018-08-28T13:09:15.724Z,28.2
2018-08-28T13:12:15.929Z,28.3
2018-08-28T13:15:15.968Z,28.5
2018-08-28T13:18:16.276Z,28.3
2018-08-28T13:21:16.215Z,28.3
2018-08-28T13:24:16.135Z,28.1
2018-08-28T13:27:15.260Z,27.6
2018-08-28T13:30:15.327Z,27.5
2018-08-28T13:33:15.829Z,27.3
2018-08-28T13:36:15.222Z,27.3
2018-08-28T13:39:15.678Z,27.5
2018-08-28T13:42:15.048Z,27.3
2018-08-28T13:45:15.345Z,27.5
2018-08-28T13:48:15.888Z,27.7
2018-08-28T13:51:15.739Z,27.7
2018-08-28T13:54:15.478Z,27.6
2018-08-28T13:57:15.416Z,27.9
2018-08-28T14:00:14.857Z,27.8
2018-08-28T14:03:15.658Z,27.7
2018-08-28T14:06:15.393Z,27.6
2018-08-28T14:09:15.797Z,27.5
2018-08-28T14:12:15.165Z,27.5
2018-08-28T14:15:15.530Z,27.5
2018-08-28T14:18:15.856Z,27.5
2018-08-28T14:21:15.429Z,27.0
2018-08-28T14:24:15.818Z,27.2
2018-08-28T14:27:15.182Z,27.0
2018-08-28T14:30:15.034Z,27.1
2018-08-28T14:33:15.412Z,27.0
2018-08-28T14:36:15.838Z,27.0
2018-08-28T14:39:15.417Z,27.0
2018-08-28T14:42:14.971Z,26.9
2018-08-28T14:45:15.204Z,26.8
2018-08-28T14:48:15.618Z,26.9
2018-08-28T14:51:15.665Z,27.0
2018-08-28T14:54:15.026Z,27.0
2018-08-28T14:57:15.234Z,26.7
2018-08-28T15:00:15.466Z,26.6
2018-08-28T15:03:15.856Z,26.5
2018-08-28T15:06:15.303Z,26.4
2018-08-28T15:09:15.615Z,26.4
2018-08-28T15:12:14.942Z,26.4
2018-08-28T15:15:15.158Z,26.4
2018-08-28T15:18:15.548Z,26.5
2018-08-28T15:21:14.974Z,26.5
2018-08-28T15:24:15.252Z,26.2
2018-08-28T15:27:15.657Z,26.1
2018-08-28T15:30:15.136Z,26.1
2018-08-28T15:33:15.373Z,26.0
2018-08-28T15:36:15.643Z,25.8
2018-08-28T15:39:15.964Z,25.8
2018-08-28T15:42:15.265Z,25.8
2018-08-28T15:45:15.522Z,25.8
2018-08-28T15:48:15.836Z,25.7
2018-08-28T15:51:15.615Z,25.6
2018-08-28T15:54:15.266Z,25.6
2018-08-28T15:57:15.846Z,25.7
2018-08-28T16:00:15.057Z,25.5
2018-08-28T16:03:15.429Z,25.6
2018-08-28T16:06:15.653Z,25.6
2018-08-28T16:09:14.900Z,25.6
2018-08-28T16:12:15.289Z,25.5
2018-08-28T16:15:15.634Z,25.5
2018-08-28T16:18:15.211Z,25.3
2018-08-28T16:21:15.737Z,25.1
2018-08-28T16:24:15.107Z,25.2
2018-08-28T16:27:15.455Z,25.2
2018-08-28T16:30:15.796Z,25.2
2018-08-28T16:33:14.910Z,25.1
2018-08-28T16:36:15.191Z,25.0
2018-08-28T16:39:15.444Z,25.0
2018-08-28T16:42:15.772Z,24.9
2018-08-28T16:45:15.105Z,24.8
2018-08-28T16:48:15.898Z,24.9
2018-08-28T16:51:15.382Z,24.9
2018-08-28T16:54:15.717Z,24.8
2018-08-28T16:57:14.917Z,24.7
2018-08-28T17:00:15.144Z,24.7
2018-08-28T17:03:15.390Z,24.7
2018-08-28T17:06:15.641Z,24.6
2018-08-28T17:09:14.890Z,24.6
2018-08-28T17:12:15.140Z,24.5
2018-08-28T17:15:15.737Z,24.5
2018-08-28T17:18:14.987Z,24.4
2018-08-28T17:21:15.408Z,24.3
2018-08-28T17:24:15.737Z,24.3
2018-08-28T17:27:15.191Z,24.2
2018-08-28T17:30:15.331Z,24.1
2018-08-28T17:33:15.497Z,24.1
2018-08-28T17:36:15.845Z,24.0
2018-08-28T17:39:15.057Z,24.1
2018-08-28T17:42:15.240Z,23.9
2018-08-28T17:45:15.482Z,23.8
2018-08-28T17:48:15.140Z,23.8
2018-08-28T17:51:15.291Z,23.7
2018-08-28T17:54:15.563Z,23.7
2018-08-28T17:57:15.766Z,23.6
2018-08-28T18:00:14.992Z,23.5
2018-08-28T18:03:15.264Z,23.4
2018-08-28T18:06:15.648Z,23.4
2018-08-28T18:09:15.878Z,23.3
2018-08-28T18:12:15.298Z,23.2
2018-08-28T18:15:15.552Z,23.2
2018-08-28T18:18:15.826Z,23.0
2018-08-28T18:21:15.051Z,22.9
2018-08-28T18:24:15.357Z,22.9
2018-08-28T18:27:15.611Z,22.9
2018-08-28T18:30:15.870Z,22.8
2018-08-28T18:33:15.110Z,22.7
2018-08-28T18:36:15.412Z,22.7
2018-08-28T18:39:15.743Z,22.6
2018-08-28T18:42:14.937Z,22.5
2018-08-28T18:45:15.008Z,22.5
2018-08-28T18:48:15.508Z,22.3
2018-08-28T18:51:15.791Z,22.3
2018-08-28T18:54:14.959Z,22.2
2018-08-28T18:57:15.155Z,22.2
2018-08-28T19:00:15.443Z,22.1
2018-08-28T19:03:15.002Z,22.1
2018-08-28T19:06:15.434Z,22.0
2018-08-28T19:09:15.707Z,21.6
2018-08-28T19:12:15.239Z,21.7
2018-08-28T19:15:15.446Z,21.6
2018-08-28T19:18:15.713Z,21.4
2018-08-28T19:21:16.010Z,21.2
2018-08-28T19:24:15.396Z,21.1
2018-08-28T19:27:15.669Z,21.0
2018-08-28T19:30:14.810Z,20.9
2018-08-28T19:33:15.079Z,21.1
2018-08-28T19:36:15.323Z,20.9
2018-08-28T19:39:15.647Z,20.8
2018-08-28T19:42:14.984Z,21.0
2018-08-28T19:45:16.253Z,20.6
2018-08-28T19:48:16.858Z,20.5
2018-08-28T19:51:15.064Z,20.4
2018-08-28T19:54:15.377Z,20.2
2018-08-28T19:57:15.596Z,20.2
2018-08-28T20:00:15.698Z,20.4
2018-08-28T20:03:14.984Z,20.2
2018-08-28T20:06:15.502Z,20.1
2018-08-28T20:09:15.768Z,20.4
2018-08-28T20:12:15.090Z,20.4
2018-08-28T20:15:15.639Z,20.3
2018-08-28T20:18:15.093Z,20.3
2018-08-28T20:21:15.360Z,19.9
2018-08-28T20:24:15.631Z,19.7
2018-08-28T20:27:15.035Z,19.7
2018-08-28T20:30:15.362Z,19.8
2018-08-28T20:33:15.728Z,19.5
2018-08-28T20:36:15.071Z,19.5
2018-08-28T20:39:15.320Z,19.4
2018-08-28T20:57:14.336Z,18.9
2018-08-28T21:00:15.777Z,18.9
2018-08-28T21:03:15.587Z,18.9
2018-08-28T21:06:15.037Z,19.1
2018-08-28T21:09:15.468Z,19.1
2018-08-28T21:12:14.989Z,18.8
2018-08-28T21:15:15.420Z,18.8
2018-08-28T21:18:15.794Z,18.8
2018-08-28T21:21:15.077Z,18.7
2018-08-28T21:24:15.544Z,18.8
2018-08-28T21:27:14.902Z,18.6
2018-08-28T21:30:15.370Z,18.7
2018-08-28T21:33:15.698Z,18.6
2018-08-28T21:36:15.084Z,18.9
2018-08-28T21:39:15.559Z,18.8
2018-08-28T21:42:15.154Z,18.9
2018-08-28T21:45:15.535Z,18.5
2018-08-28T21:48:15.922Z,18.2
2018-08-28T21:51:15.440Z,18.2
2018-08-28T21:54:14.899Z,18.2
2018-08-28T21:57:15.444Z,18.2
2018-08-28T22:00:15.825Z,18.2
2018-08-28T22:03:15.329Z,18.1
2018-08-28T22:06:16.792Z,18.3
2018-08-28T22:09:15.054Z,18.1
2018-08-28T22:12:15.402Z,18.2
2018-08-28T22:15:15.665Z,18.5
2018-08-28T22:18:15.231Z,18.4
2018-08-28T22:21:15.451Z,18.7
2018-08-28T22:24:15.704Z,18.5
2018-08-28T22:27:15.046Z,18.1
2018-08-28T22:30:15.581Z,18.1
2018-08-28T22:33:15.141Z,18.2
2018-08-28T22:36:15.572Z,17.9
2018-08-28T22:39:14.921Z,17.7
2018-08-28T22:42:15.344Z,17.4
2018-08-28T22:45:15.474Z,17.6
2018-08-28T22:48:14.890Z,17.5
2018-08-28T22:51:15.288Z,17.4
2018-08-28T22:54:15.702Z,17.3
2018-08-28T22:57:15.177Z,17.1
2018-08-28T23:00:15.702Z,17.2
2018-08-28T23:03:15.105Z,17.2
2018-08-28T23:06:15.363Z,17.3
2018-08-28T23:09:15.859Z,17.0
2018-08-28T23:12:15.226Z,17.0
2018-08-28T23:15:15.812Z,16.9
2018-08-28T23:18:15.863Z,16.8
2018-08-28T23:21:15.876Z,16.9
2018-08-28T23:24:15.430Z,16.6
2018-08-28T23:27:15.925Z,16.7
2018-08-28T23:30:15.790Z,16.6
2018-08-28T23:33:15.025Z,16.9
2018-08-28T23:36:15.260Z,17.2
2018-08-28T23:39:15.614Z,16.9
2018-08-28T23:42:15.798Z,16.9
2018-08-28T23:45:15.118Z,16.9
2018-08-28T23:48:15.327Z,16.9
2018-08-28T23:51:15.587Z,17.0
2018-08-28T23:54:15.853Z,17.3
2018-08-28T23:57:14.982Z,17.2
